sensor_id;sensor_type;location;lat;lon;timestamp;P1;durP1;ratioP1;P2;durP2;ratioP2
39050;SDS011;24805;55.852;37.644;2023-06-22T00:00:59;7.53;;;3.45;;
39050;SDS011;24805;55.852;37.644;2023-06-22T00:06:02;7.95;;;4.32;;
39050;SDS011;24805;55.852;37.644;2023-06-22T00:11:05;11.10;;;4.57;;
39050;SDS011;24805;55.852;37.644;2023-06-22T00:16:07;7.53;;;3.85;;
39050;SDS011;24805;55.852;37.644;2023-06-22T00:21:09;7.07;;;4.05;;
39050;SDS011;24805;55.852;37.644;2023-06-22T00:26:11;8.70;;;4.22;;
39050;SDS011;24805;55.852;37.644;2023-06-22T00:36:16;9.73;;;4.03;;
39050;SDS011;24805;55.852;37.644;2023-06-22T00:41:19;12.52;;;4.68;;
39050;SDS011;24805;55.852;37.644;2023-06-22T00:46:21;10.82;;;4.53;;
39050;SDS011;24805;55.852;37.644;2023-06-22T00:51:24;8.55;;;4.32;;
39050;SDS011;24805;55.852;37.644;2023-06-22T00:56:28;9.35;;;4.60;;
39050;SDS011;24805;55.852;37.644;2023-06-22T01:01:31;9.77;;;4.82;;
39050;SDS011;24805;55.852;37.644;2023-06-22T01:06:41;12.23;;;5.53;;
39050;SDS011;24805;55.852;37.644;2023-06-22T01:12:04;11.18;;;5.60;;
39050;SDS011;24805;55.852;37.644;2023-06-22T01:17:09;15.65;;;6.10;;
39050;SDS011;24805;55.852;37.644;2023-06-22T01:22:18;9.27;;;4.55;;
39050;SDS011;24805;55.852;37.644;2023-06-22T01:27:42;17.42;;;6.50;;
39050;SDS011;24805;55.852;37.644;2023-06-22T01:33:17;15.20;;;6.53;;
39050;SDS011;24805;55.852;37.644;2023-06-22T01:38:19;14.38;;;6.60;;
39050;SDS011;24805;55.852;37.644;2023-06-22T01:43:22;12.40;;;5.28;;
39050;SDS011;24805;55.852;37.644;2023-06-22T01:48:27;11.13;;;4.75;;
39050;SDS011;24805;55.852;37.644;2023-06-22T01:53:30;12.38;;;5.07;;
39050;SDS011;24805;55.852;37.644;2023-06-22T01:58:33;16.80;;;6.45;;
39050;SDS011;24805;55.852;37.644;2023-06-22T02:03:37;12.68;;;6.40;;
39050;SDS011;24805;55.852;37.644;2023-06-22T02:08:48;13.80;;;6.10;;
39050;SDS011;24805;55.852;37.644;2023-06-22T02:13:53;15.25;;;6.43;;
39050;SDS011;24805;55.852;37.644;2023-06-22T02:18:58;22.15;;;8.30;;
39050;SDS011;24805;55.852;37.644;2023-06-22T02:24:08;11.20;;;6.32;;
39050;SDS011;24805;55.852;37.644;2023-06-22T02:29:10;17.23;;;8.23;;
39050;SDS011;24805;55.852;37.644;2023-06-22T02:34:12;21.33;;;8.60;;
39050;SDS011;24805;55.852;37.644;2023-06-22T02:44:24;23.77;;;9.50;;
39050;SDS011;24805;55.852;37.644;2023-06-22T02:49:26;21.77;;;8.60;;
39050;SDS011;24805;55.852;37.644;2023-06-22T02:54:29;23.63;;;7.95;;
39050;SDS011;24805;55.852;37.644;2023-06-22T02:59:32;16.90;;;8.23;;
39050;SDS011;24805;55.852;37.644;2023-06-22T03:04:41;21.40;;;7.95;;
39050;SDS011;24805;55.852;37.644;2023-06-22T03:09:44;15.15;;;7.38;;
39050;SDS011;24805;55.852;37.644;2023-06-22T03:14:47;15.23;;;7.40;;
39050;SDS011;24805;55.852;37.644;2023-06-22T03:19:49;15.98;;;6.80;;
39050;SDS011;24805;55.852;37.644;2023-06-22T03:24:51;11.27;;;6.40;;
39050;SDS011;24805;55.852;37.644;2023-06-22T03:29:53;12.63;;;5.50;;
39050;SDS011;24805;55.852;37.644;2023-06-22T03:34:56;10.18;;;5.20;;
39050;SDS011;24805;55.852;37.644;2023-06-22T03:40:01;16.50;;;6.00;;
39050;SDS011;24805;55.852;37.644;2023-06-22T03:45:06;13.40;;;5.38;;
39050;SDS011;24805;55.852;37.644;2023-06-22T03:50:09;14.70;;;6.25;;
39050;SDS011;24805;55.852;37.644;2023-06-22T03:55:11;10.50;;;5.93;;
39050;SDS011;24805;55.852;37.644;2023-06-22T04:00:14;10.80;;;5.18;;
39050;SDS011;24805;55.852;37.644;2023-06-22T04:05:17;11.18;;;4.57;;
39050;SDS011;24805;55.852;37.644;2023-06-22T04:10:20;7.72;;;4.15;;
39050;SDS011;24805;55.852;37.644;2023-06-22T04:15:23;8.93;;;3.55;;
39050;SDS011;24805;55.852;37.644;2023-06-22T04:20:25;7.82;;;3.60;;
39050;SDS011;24805;55.852;37.644;2023-06-22T04:25:30;7.00;;;3.45;;
39050;SDS011;24805;55.852;37.644;2023-06-22T04:30:32;7.40;;;3.17;;
39050;SDS011;24805;55.852;37.644;2023-06-22T04:35:35;7.72;;;3.30;;
39050;SDS011;24805;55.852;37.644;2023-06-22T04:40:37;7.00;;;2.85;;
39050;SDS011;24805;55.852;37.644;2023-06-22T04:45:39;5.18;;;2.97;;
39050;SDS011;24805;55.852;37.644;2023-06-22T04:50:42;5.50;;;3.30;;
39050;SDS011;24805;55.852;37.644;2023-06-22T04:55:44;7.70;;;3.28;;
39050;SDS011;24805;55.852;37.644;2023-06-22T05:00:48;4.68;;;3.33;;
39050;SDS011;24805;55.852;37.644;2023-06-22T05:05:53;6.70;;;3.13;;
39050;SDS011;24805;55.852;37.644;2023-06-22T05:10:55;6.05;;;3.50;;
39050;SDS011;24805;55.852;37.644;2023-06-22T05:16:06;9.57;;;3.33;;
39050;SDS011;24805;55.852;37.644;2023-06-22T05:21:08;6.20;;;4.00;;
39050;SDS011;24805;55.852;37.644;2023-06-22T05:26:11;7.60;;;3.78;;
39050;SDS011;24805;55.852;37.644;2023-06-22T05:31:13;6.70;;;3.75;;
39050;SDS011;24805;55.852;37.644;2023-06-22T05:36:16;7.55;;;3.65;;
39050;SDS011;24805;55.852;37.644;2023-06-22T05:41:20;7.60;;;3.72;;
39050;SDS011;24805;55.852;37.644;2023-06-22T05:46:22;8.05;;;3.38;;
39050;SDS011;24805;55.852;37.644;2023-06-22T05:51:24;5.28;;;3.20;;
39050;SDS011;24805;55.852;37.644;2023-06-22T05:56:27;5.15;;;3.05;;
39050;SDS011;24805;55.852;37.644;2023-06-22T06:01:29;6.20;;;3.30;;
39050;SDS011;24805;55.852;37.644;2023-06-22T06:06:36;7.28;;;2.80;;
39050;SDS011;24805;55.852;37.644;2023-06-22T06:11:39;5.40;;;3.05;;
39050;SDS011;24805;55.852;37.644;2023-06-22T06:16:41;4.38;;;2.60;;
39050;SDS011;24805;55.852;37.644;2023-06-22T06:21:43;7.82;;;2.92;;
39050;SDS011;24805;55.852;37.644;2023-06-22T06:26:46;4.25;;;2.65;;
39050;SDS011;24805;55.852;37.644;2023-06-22T06:31:48;4.57;;;2.88;;
39050;SDS011;24805;55.852;37.644;2023-06-22T06:36:53;4.75;;;2.70;;
39050;SDS011;24805;55.852;37.644;2023-06-22T06:41:55;6.00;;;2.35;;
39050;SDS011;24805;55.852;37.644;2023-06-22T06:46:57;3.28;;;2.70;;
39050;SDS011;24805;55.852;37.644;2023-06-22T06:52:00;9.60;;;2.67;;
39050;SDS011;24805;55.852;37.644;2023-06-22T06:57:02;5.00;;;2.67;;
39050;SDS011;24805;55.852;37.644;2023-06-22T07:02:05;4.20;;;2.20;;
39050;SDS011;24805;55.852;37.644;2023-06-22T07:07:07;3.53;;;2.13;;
39050;SDS011;24805;55.852;37.644;2023-06-22T07:12:09;5.90;;;2.13;;
39050;SDS011;24805;55.852;37.644;2023-06-22T07:17:11;6.43;;;3.03;;
39050;SDS011;24805;55.852;37.644;2023-06-22T07:22:13;7.63;;;2.10;;
39050;SDS011;24805;55.852;37.644;2023-06-22T07:27:16;5.22;;;2.28;;
39050;SDS011;24805;55.852;37.644;2023-06-22T07:32:21;3.90;;;2.08;;
39050;SDS011;24805;55.852;37.644;2023-06-22T07:37:23;4.72;;;2.45;;
39050;SDS011;24805;55.852;37.644;2023-06-22T07:42:26;3.85;;;2.40;;
39050;SDS011;24805;55.852;37.644;2023-06-22T07:47:28;6.80;;;2.42;;
39050;SDS011;24805;55.852;37.644;2023-06-22T07:52:31;4.80;;;1.90;;
39050;SDS011;24805;55.852;37.644;2023-06-22T07:57:33;7.45;;;2.10;;
39050;SDS011;24805;55.852;37.644;2023-06-22T08:02:36;4.78;;;1.80;;
39050;SDS011;24805;55.852;37.644;2023-06-22T08:07:38;3.97;;;2.03;;
39050;SDS011;24805;55.852;37.644;2023-06-22T08:12:41;5.82;;;1.70;;
39050;SDS011;24805;55.852;37.644;2023-06-22T08:17:44;4.93;;;1.88;;
39050;SDS011;24805;55.852;37.644;2023-06-22T08:22:50;4.10;;;1.80;;
39050;SDS011;24805;55.852;37.644;2023-06-22T08:27:53;3.38;;;1.83;;
39050;SDS011;24805;55.852;37.644;2023-06-22T08:32:55;6.35;;;1.77;;
39050;SDS011;24805;55.852;37.644;2023-06-22T08:37:58;6.13;;;1.58;;
39050;SDS011;24805;55.852;37.644;2023-06-22T08:43:01;4.22;;;2.10;;
39050;SDS011;24805;55.852;37.644;2023-06-22T08:48:04;5.60;;;1.90;;
39050;SDS011;24805;55.852;37.644;2023-06-22T08:53:06;2.90;;;2.00;;
39050;SDS011;24805;55.852;37.644;2023-06-22T08:58:08;6.00;;;2.15;;
39050;SDS011;24805;55.852;37.644;2023-06-22T09:03:10;5.65;;;1.90;;
39050;SDS011;24805;55.852;37.644;2023-06-22T09:08:13;4.05;;;1.90;;
39050;SDS011;24805;55.852;37.644;2023-06-22T09:13:15;2.20;;;1.90;;
39050;SDS011;24805;55.852;37.644;2023-06-22T09:18:17;2.35;;;1.90;;
39050;SDS011;24805;55.852;37.644;2023-06-22T09:23:20;6.00;;;2.40;;
39050;SDS011;24805;55.852;37.644;2023-06-22T09:28:22;5.22;;;2.25;;
39050;SDS011;24805;55.852;37.644;2023-06-22T09:33:25;2.17;;;1.80;;
39050;SDS011;24805;55.852;37.644;2023-06-22T09:38:27;3.63;;;1.75;;
39050;SDS011;24805;55.852;37.644;2023-06-22T09:43:31;5.55;;;2.88;;
39050;SDS011;24805;55.852;37.644;2023-06-22T09:48:34;3.17;;;2.20;;
39050;SDS011;24805;55.852;37.644;2023-06-22T09:53:36;3.50;;;2.10;;
39050;SDS011;24805;55.852;37.644;2023-06-22T09:58:38;5.15;;;2.50;;
39050;SDS011;24805;55.852;37.644;2023-06-22T10:03:41;3.80;;;1.92;;
39050;SDS011;24805;55.852;37.644;2023-06-22T10:08:43;4.68;;;2.03;;
39050;SDS011;24805;55.852;37.644;2023-06-22T10:13:45;5.25;;;1.98;;
39050;SDS011;24805;55.852;37.644;2023-06-22T10:18:48;2.92;;;2.58;;
39050;SDS011;24805;55.852;37.644;2023-06-22T10:23:50;3.00;;;2.08;;
39050;SDS011;24805;55.852;37.644;2023-06-22T10:28:52;2.58;;;2.15;;
39050;SDS011;24805;55.852;37.644;2023-06-22T10:34:14;4.53;;;2.00;;
39050;SDS011;24805;55.852;37.644;2023-06-22T10:39:17;1.90;;;1.50;;
39050;SDS011;24805;55.852;37.644;2023-06-22T10:44:19;3.67;;;1.90;;
39050;SDS011;24805;55.852;37.644;2023-06-22T10:49:22;5.53;;;2.45;;
39050;SDS011;24805;55.852;37.644;2023-06-22T10:54:24;3.35;;;2.47;;
39050;SDS011;24805;55.852;37.644;2023-06-22T10:59:26;3.95;;;2.42;;
39050;SDS011;24805;55.852;37.644;2023-06-22T11:04:30;3.28;;;1.90;;
39050;SDS011;24805;55.852;37.644;2023-06-22T11:09:32;7.75;;;1.85;;
39050;SDS011;24805;55.852;37.644;2023-06-22T11:14:34;4.30;;;2.25;;
39050;SDS011;24805;55.852;37.644;2023-06-22T11:19:37;4.53;;;2.00;;
39050;SDS011;24805;55.852;37.644;2023-06-22T11:24:39;4.78;;;2.20;;
39050;SDS011;24805;55.852;37.644;2023-06-22T11:29:41;5.05;;;2.17;;
39050;SDS011;24805;55.852;37.644;2023-06-22T11:34:43;2.88;;;2.20;;
39050;SDS011;24805;55.852;37.644;2023-06-22T11:39:45;3.05;;;2.50;;
39050;SDS011;24805;55.852;37.644;2023-06-22T11:44:54;2.67;;;2.40;;
39050;SDS011;24805;55.852;37.644;2023-06-22T11:49:58;3.95;;;2.63;;
39050;SDS011;24805;55.852;37.644;2023-06-22T11:55:01;2.85;;;2.33;;
39050;SDS011;24805;55.852;37.644;2023-06-22T12:00:05;3.13;;;2.15;;
39050;SDS011;24805;55.852;37.644;2023-06-22T12:05:17;3.17;;;2.40;;
39050;SDS011;24805;55.852;37.644;2023-06-22T12:10:21;3.53;;;2.65;;
39050;SDS011;24805;55.852;37.644;2023-06-22T12:15:24;4.25;;;3.25;;
39050;SDS011;24805;55.852;37.644;2023-06-22T12:20:26;2.88;;;2.33;;
39050;SDS011;24805;55.852;37.644;2023-06-22T12:25:29;3.08;;;2.40;;
39050;SDS011;24805;55.852;37.644;2023-06-22T12:30:34;3.85;;;2.58;;
39050;SDS011;24805;55.852;37.644;2023-06-22T12:35:36;5.50;;;2.60;;
39050;SDS011;24805;55.852;37.644;2023-06-22T12:40:38;4.22;;;2.55;;
39050;SDS011;24805;55.852;37.644;2023-06-22T12:45:40;6.18;;;3.33;;
39050;SDS011;24805;55.852;37.644;2023-06-22T12:50:42;4.90;;;3.40;;
39050;SDS011;24805;55.852;37.644;2023-06-22T12:55:45;3.67;;;2.70;;
39050;SDS011;24805;55.852;37.644;2023-06-22T13:00:47;3.55;;;3.25;;
39050;SDS011;24805;55.852;37.644;2023-06-22T13:05:50;4.88;;;3.20;;
39050;SDS011;24805;55.852;37.644;2023-06-22T13:10:52;5.88;;;2.83;;
39050;SDS011;24805;55.852;37.644;2023-06-22T13:15:54;8.68;;;5.85;;
39050;SDS011;24805;55.852;37.644;2023-06-22T13:20:56;6.22;;;4.88;;
39050;SDS011;24805;55.852;37.644;2023-06-22T13:25:59;6.97;;;3.40;;
39050;SDS011;24805;55.852;37.644;2023-06-22T13:31:02;5.95;;;3.70;;
39050;SDS011;24805;55.852;37.644;2023-06-22T13:36:04;4.50;;;3.35;;
39050;SDS011;24805;55.852;37.644;2023-06-22T13:41:08;5.78;;;3.42;;
39050;SDS011;24805;55.852;37.644;2023-06-22T13:46:10;5.15;;;3.20;;
39050;SDS011;24805;55.852;37.644;2023-06-22T13:51:12;4.72;;;4.00;;
39050;SDS011;24805;55.852;37.644;2023-06-22T13:56:14;5.57;;;3.90;;
39050;SDS011;24805;55.852;37.644;2023-06-22T14:01:16;5.35;;;3.58;;
39050;SDS011;24805;55.852;37.644;2023-06-22T14:06:19;4.45;;;3.58;;
39050;SDS011;24805;55.852;37.644;2023-06-22T14:11:21;5.53;;;3.65;;
39050;SDS011;24805;55.852;37.644;2023-06-22T14:16:23;6.03;;;4.03;;
39050;SDS011;24805;55.852;37.644;2023-06-22T14:21:25;4.97;;;3.28;;
39050;SDS011;24805;55.852;37.644;2023-06-22T14:26:27;4.20;;;3.20;;
39050;SDS011;24805;55.852;37.644;2023-06-22T14:31:30;6.18;;;4.60;;
39050;SDS011;24805;55.852;37.644;2023-06-22T14:36:32;5.18;;;3.22;;
39050;SDS011;24805;55.852;37.644;2023-06-22T14:41:34;8.57;;;3.42;;
39050;SDS011;24805;55.852;37.644;2023-06-22T14:46:36;4.72;;;3.40;;
39050;SDS011;24805;55.852;37.644;2023-06-22T14:51:39;3.40;;;3.05;;
39050;SDS011;24805;55.852;37.644;2023-06-22T14:56:41;7.25;;;3.72;;
39050;SDS011;24805;55.852;37.644;2023-06-22T15:01:43;4.65;;;3.50;;
39050;SDS011;24805;55.852;37.644;2023-06-22T15:06:48;5.60;;;3.60;;
39050;SDS011;24805;55.852;37.644;2023-06-22T15:11:50;4.68;;;3.60;;
39050;SDS011;24805;55.852;37.644;2023-06-22T15:16:53;7.38;;;3.60;;
39050;SDS011;24805;55.852;37.644;2023-06-22T15:21:56;7.43;;;3.50;;
39050;SDS011;24805;55.852;37.644;2023-06-22T15:26:58;7.93;;;4.00;;
39050;SDS011;24805;55.852;37.644;2023-06-22T15:32:00;7.00;;;4.07;;
39050;SDS011;24805;55.852;37.644;2023-06-22T15:37:03;7.40;;;2.80;;
39050;SDS011;24805;55.852;37.644;2023-06-22T15:42:06;8.48;;;3.10;;
39050;SDS011;24805;55.852;37.644;2023-06-22T15:47:08;7.57;;;3.10;;
39050;SDS011;24805;55.852;37.644;2023-06-22T15:52:11;6.60;;;3.03;;
39050;SDS011;24805;55.852;37.644;2023-06-22T15:57:13;9.75;;;3.13;;
39050;SDS011;24805;55.852;37.644;2023-06-22T16:02:16;3.88;;;2.83;;
39050;SDS011;24805;55.852;37.644;2023-06-22T16:07:18;9.57;;;3.95;;
39050;SDS011;24805;55.852;37.644;2023-06-22T16:12:20;6.55;;;2.90;;
39050;SDS011;24805;55.852;37.644;2023-06-22T16:17:22;8.77;;;3.08;;
39050;SDS011;24805;55.852;37.644;2023-06-22T16:22:27;5.35;;;2.80;;
39050;SDS011;24805;55.852;37.644;2023-06-22T16:27:29;5.50;;;2.90;;
39050;SDS011;24805;55.852;37.644;2023-06-22T16:32:33;8.35;;;2.90;;
39050;SDS011;24805;55.852;37.644;2023-06-22T16:37:36;10.13;;;3.15;;
39050;SDS011;24805;55.852;37.644;2023-06-22T16:42:38;10.73;;;2.80;;
39050;SDS011;24805;55.852;37.644;2023-06-22T16:47:40;5.72;;;2.40;;
39050;SDS011;24805;55.852;37.644;2023-06-22T16:52:52;4.85;;;2.92;;
39050;SDS011;24805;55.852;37.644;2023-06-22T16:57:54;6.00;;;2.90;;
39050;SDS011;24805;55.852;37.644;2023-06-22T17:02:59;5.50;;;2.83;;
39050;SDS011;24805;55.852;37.644;2023-06-22T17:08:07;4.97;;;2.70;;
39050;SDS011;24805;55.852;37.644;2023-06-22T17:13:15;5.65;;;2.58;;
39050;SDS011;24805;55.852;37.644;2023-06-22T17:18:17;10.02;;;2.90;;
39050;SDS011;24805;55.852;37.644;2023-06-22T17:23:22;6.88;;;2.45;;
39050;SDS011;24805;55.852;37.644;2023-06-22T17:28:25;7.03;;;2.50;;
39050;SDS011;24805;55.852;37.644;2023-06-22T17:33:29;6.70;;;2.92;;
39050;SDS011;24805;55.852;37.644;2023-06-22T17:38:31;6.05;;;2.47;;
39050;SDS011;24805;55.852;37.644;2023-06-22T17:43:42;5.47;;;2.70;;
39050;SDS011;24805;55.852;37.644;2023-06-22T17:53:49;5.28;;;3.08;;
39050;SDS011;24805;55.852;37.644;2023-06-22T17:58:54;8.00;;;2.70;;
39050;SDS011;24805;55.852;37.644;2023-06-22T18:03:57;9.43;;;3.35;;
39050;SDS011;24805;55.852;37.644;2023-06-22T18:09:02;5.60;;;2.28;;
39050;SDS011;24805;55.852;37.644;2023-06-22T18:14:06;7.07;;;2.60;;
39050;SDS011;24805;55.852;37.644;2023-06-22T18:19:08;6.68;;;2.95;;
39050;SDS011;24805;55.852;37.644;2023-06-22T18:24:11;7.13;;;3.58;;
39050;SDS011;24805;55.852;37.644;2023-06-22T18:29:16;6.75;;;3.28;;
39050;SDS011;24805;55.852;37.644;2023-06-22T18:34:18;6.03;;;2.88;;
39050;SDS011;24805;55.852;37.644;2023-06-22T18:39:20;8.38;;;3.08;;
39050;SDS011;24805;55.852;37.644;2023-06-22T18:44:24;7.32;;;2.75;;
39050;SDS011;24805;55.852;37.644;2023-06-22T18:54:46;5.88;;;2.75;;
39050;SDS011;24805;55.852;37.644;2023-06-22T19:05:15;5.05;;;2.90;;
39050;SDS011;24805;55.852;37.644;2023-06-22T19:15:40;9.45;;;3.50;;
39050;SDS011;24805;55.852;37.644;2023-06-22T19:20:42;6.82;;;3.10;;
39050;SDS011;24805;55.852;37.644;2023-06-22T19:26:06;4.65;;;3.13;;
39050;SDS011;24805;55.852;37.644;2023-06-22T19:31:10;5.53;;;2.85;;
39050;SDS011;24805;55.852;37.644;2023-06-22T19:36:13;6.05;;;3.13;;
39050;SDS011;24805;55.852;37.644;2023-06-22T19:41:21;6.53;;;2.50;;
39050;SDS011;24805;55.852;37.644;2023-06-22T19:46:30;7.38;;;2.60;;
39050;SDS011;24805;55.852;37.644;2023-06-22T19:51:34;5.50;;;2.40;;
39050;SDS011;24805;55.852;37.644;2023-06-22T19:56:37;3.20;;;2.50;;
39050;SDS011;24805;55.852;37.644;2023-06-22T20:01:40;5.55;;;2.78;;
39050;SDS011;24805;55.852;37.644;2023-06-22T20:12:08;4.45;;;2.60;;
39050;SDS011;24805;55.852;37.644;2023-06-22T20:17:14;4.38;;;3.38;;
39050;SDS011;24805;55.852;37.644;2023-06-22T20:22:17;6.05;;;2.60;;
39050;SDS011;24805;55.852;37.644;2023-06-22T20:27:19;4.72;;;3.03;;
39050;SDS011;24805;55.852;37.644;2023-06-22T20:32:21;10.98;;;3.50;;
39050;SDS011;24805;55.852;37.644;2023-06-22T20:37:23;7.25;;;2.85;;
39050;SDS011;24805;55.852;37.644;2023-06-22T20:42:30;5.60;;;2.80;;
39050;SDS011;24805;55.852;37.644;2023-06-22T20:47:32;5.05;;;2.55;;
39050;SDS011;24805;55.852;37.644;2023-06-22T20:52:35;5.80;;;2.50;;
39050;SDS011;24805;55.852;37.644;2023-06-22T20:57:37;3.00;;;2.70;;
39050;SDS011;24805;55.852;37.644;2023-06-22T21:02:39;5.85;;;2.70;;
39050;SDS011;24805;55.852;37.644;2023-06-22T21:07:42;8.45;;;3.33;;
39050;SDS011;24805;55.852;37.644;2023-06-22T21:12:44;6.38;;;3.17;;
39050;SDS011;24805;55.852;37.644;2023-06-22T21:17:46;6.68;;;3.30;;
39050;SDS011;24805;55.852;37.644;2023-06-22T21:22:51;7.80;;;4.28;;
39050;SDS011;24805;55.852;37.644;2023-06-22T21:27:53;7.18;;;3.90;;
39050;SDS011;24805;55.852;37.644;2023-06-22T21:32:56;6.10;;;4.53;;
39050;SDS011;24805;55.852;37.644;2023-06-22T21:37:58;8.40;;;5.00;;
39050;SDS011;24805;55.852;37.644;2023-06-22T21:43:00;12.52;;;5.20;;
39050;SDS011;24805;55.852;37.644;2023-06-22T21:48:05;7.35;;;5.07;;
39050;SDS011;24805;55.852;37.644;2023-06-22T21:53:07;11.13;;;4.82;;
39050;SDS011;24805;55.852;37.644;2023-06-22T21:58:09;8.77;;;4.60;;
39050;SDS011;24805;55.852;37.644;2023-06-22T22:03:12;8.60;;;5.15;;
39050;SDS011;24805;55.852;37.644;2023-06-22T22:08:15;21.00;;;14.07;;
39050;SDS011;24805;55.852;37.644;2023-06-22T22:13:18;10.00;;;4.90;;
39050;SDS011;24805;55.852;37.644;2023-06-22T22:18:20;7.60;;;4.90;;
39050;SDS011;24805;55.852;37.644;2023-06-22T22:23:23;11.10;;;5.00;;
39050;SDS011;24805;55.852;37.644;2023-06-22T22:28:27;7.72;;;4.72;;
39050;SDS011;24805;55.852;37.644;2023-06-22T22:33:30;7.57;;;4.57;;
39050;SDS011;24805;55.852;37.644;2023-06-22T22:38:32;6.10;;;3.83;;
39050;SDS011;24805;55.852;37.644;2023-06-22T22:43:36;9.88;;;4.75;;
39050;SDS011;24805;55.852;37.644;2023-06-22T22:48:39;5.70;;;4.13;;
39050;SDS011;24805;55.852;37.644;2023-06-22T22:53:42;10.88;;;4.10;;
39050;SDS011;24805;55.852;37.644;2023-06-22T22:58:44;6.25;;;4.00;;
39050;SDS011;24805;55.852;37.644;2023-06-22T23:03:46;7.13;;;3.80;;
39050;SDS011;24805;55.852;37.644;2023-06-22T23:08:49;6.18;;;3.90;;
39050;SDS011;24805;55.852;37.644;2023-06-22T23:13:58;12.93;;;4.72;;
39050;SDS011;24805;55.852;37.644;2023-06-22T23:19:00;6.18;;;3.33;;
39050;SDS011;24805;55.852;37.644;2023-06-22T23:24:02;4.78;;;3.30;;
39050;SDS011;24805;55.852;37.644;2023-06-22T23:29:05;10.98;;;2.83;;
39050;SDS011;24805;55.852;37.644;2023-06-22T23:34:07;11.85;;;3.45;;
39050;SDS011;24805;55.852;37.644;2023-06-22T23:39:09;7.80;;;3.17;;
39050;SDS011;24805;55.852;37.644;2023-06-22T23:44:11;5.72;;;3.05;;
39050;SDS011;24805;55.852;37.644;2023-06-22T23:49:13;9.25;;;2.83;;
39050;SDS011;24805;55.852;37.644;2023-06-22T23:54:16;5.95;;;2.40;;
39050;SDS011;24805;55.852;37.644;2023-06-22T23:59:18;6.03;;;2.38;;
